createdAt,value
2022-12-24T13:00:39.148Z,3.90
2022-12-24T13:11:22.447Z,3.72
2022-12-24T13:21:46.230Z,3.50
2022-12-24T13:32:20.147Z,3.03
2022-12-24T13:43:04.714Z,3.30
2022-12-24T13:53:33.810Z,3.58
2022-12-24T14:03:59.436Z,3.83
2022-12-24T14:14:36.296Z,3.70
2022-12-24T14:25:10.576Z,3.47
2022-12-24T14:35:38.152Z,3.05
2022-12-24T14:46:11.133Z,3.83
2022-12-24T14:56:33.083Z,3.72
2022-12-24T15:06:57.614Z,3.10
2022-12-24T15:17:19.271Z,3.30
2022-12-24T15:27:40.772Z,3.97
2022-12-24T15:38:04.084Z,4.17
2022-12-24T15:48:31.310Z,4.38
2022-12-24T15:58:53.108Z,3.70
2022-12-24T16:09:42.443Z,3.70
2022-12-24T16:20:07.693Z,3.63
2022-12-24T16:30:29.229Z,3.35
2022-12-24T16:40:50.783Z,3.73
2022-12-24T16:51:12.337Z,3.27
2022-12-24T17:01:33.873Z,3.13
2022-12-24T17:11:55.482Z,2.60
2022-12-24T17:22:17.664Z,3.20
2022-12-24T17:32:39.626Z,3.13
2022-12-24T17:53:22.675Z,2.70
2022-12-24T18:03:45.729Z,3.00
2022-12-24T18:14:08.161Z,2.97
2022-12-24T18:24:29.673Z,3.47
2022-12-24T18:34:51.614Z,3.07
2022-12-24T18:55:36.127Z,3.15
2022-12-24T19:06:01.922Z,3.60
2022-12-24T19:16:23.726Z,3.88
2022-12-24T19:26:45.419Z,4.00
2022-12-24T19:37:06.989Z,3.90
2022-12-24T19:47:28.515Z,3.90
2022-12-24T19:57:52.592Z,3.77
2022-12-24T20:08:14.160Z,4.60
2022-12-24T20:18:36.086Z,4.27
2022-12-24T20:28:57.621Z,4.35
2022-12-24T20:39:19.111Z,4.47
2022-12-24T20:49:41.486Z,5.13
2022-12-24T21:00:04.462Z,4.75
2022-12-24T21:10:32.266Z,5.47
2022-12-24T21:20:55.654Z,6.60
2022-12-24T21:31:17.640Z,6.93
2022-12-24T21:41:39.348Z,7.55
2022-12-24T21:52:00.865Z,8.27
2022-12-24T22:02:28.264Z,7.70
2022-12-24T22:12:50.014Z,7.30
2022-12-24T22:23:12.980Z,5.50
2022-12-24T22:33:36.321Z,5.72
2022-12-24T22:43:57.936Z,6.57
2022-12-24T22:54:19.453Z,7.83
2022-12-24T23:04:41.374Z,7.03
2022-12-24T23:15:03.650Z,7.53
2022-12-24T23:25:25.476Z,8.18
2022-12-24T23:35:47.067Z,8.00
2022-12-24T23:46:15.560Z,8.40
2022-12-24T23:56:37.154Z,8.05
